sensor_id;sensor_type;location;lat;lon;timestamp;P1;durP1;ratioP1;P2;durP2;ratioP2
23304;SDS011;11821;51.456;8.844;2022-08-04T00:00:15;6.82;;;2.90;;
23304;SDS011;11821;51.456;8.844;2022-08-04T00:07:55;10.52;;;3.03;;
23304;SDS011;11821;51.456;8.844;2022-08-04T00:10:47;9.38;;;2.78;;
23304;SDS011;11821;51.456;8.844;2022-08-04T00:13:16;2.70;;;2.50;;
23304;SDS011;11821;51.456;8.844;2022-08-04T00:15:56;5.78;;;2.80;;
23304;SDS011;11821;51.456;8.844;2022-08-04T00:18:28;4.50;;;2.70;;
23304;SDS011;11821;51.456;8.844;2022-08-04T00:21:11;6.97;;;3.00;;
23304;SDS011;11821;51.456;8.844;2022-08-04T00:23:38;3.58;;;2.30;;
23304;SDS011;11821;51.456;8.844;2022-08-04T00:26:07;5.20;;;2.88;;
23304;SDS011;11821;51.456;8.844;2022-08-04T00:28:34;5.47;;;2.88;;
23304;SDS011;11821;51.456;8.844;2022-08-04T00:31:03;4.68;;;2.65;;
23304;SDS011;11821;51.456;8.844;2022-08-04T00:33:31;4.45;;;2.85;;
23304;SDS011;11821;51.456;8.844;2022-08-04T00:35:58;3.50;;;3.00;;
23304;SDS011;11821;51.456;8.844;2022-08-04T00:38:25;5.88;;;2.78;;
23304;SDS011;11821;51.456;8.844;2022-08-04T00:41:07;3.85;;;2.65;;
23304;SDS011;11821;51.456;8.844;2022-08-04T00:57:53;4.45;;;3.05;;
23304;SDS011;11821;51.456;8.844;2022-08-04T01:00:53;5.63;;;3.00;;
23304;SDS011;11821;51.456;8.844;2022-08-04T01:15:13;11.13;;;3.72;;
23304;SDS011;11821;51.456;8.844;2022-08-04T01:18:09;7.03;;;3.00;;
23304;SDS011;11821;51.456;8.844;2022-08-04T01:20:40;3.97;;;3.15;;
23304;SDS011;11821;51.456;8.844;2022-08-04T01:26:16;10.00;;;3.17;;
23304;SDS011;11821;51.456;8.844;2022-08-04T01:28:58;4.60;;;2.90;;
23304;SDS011;11821;51.456;8.844;2022-08-04T01:33:54;5.70;;;2.67;;
23304;SDS011;11821;51.456;8.844;2022-08-04T01:36:24;3.33;;;2.80;;
23304;SDS011;11821;51.456;8.844;2022-08-04T01:38:51;4.57;;;2.72;;
23304;SDS011;11821;51.456;8.844;2022-08-04T01:41:19;6.75;;;3.05;;
23304;SDS011;11821;51.456;8.844;2022-08-04T01:43:46;6.53;;;3.03;;
23304;SDS011;11821;51.456;8.844;2022-08-04T01:46:14;3.80;;;3.08;;
23304;SDS011;11821;51.456;8.844;2022-08-04T01:48:43;4.45;;;2.80;;
23304;SDS011;11821;51.456;8.844;2022-08-04T01:51:11;8.98;;;3.25;;
23304;SDS011;11821;51.456;8.844;2022-08-04T01:53:39;3.38;;;2.65;;
23304;SDS011;11821;51.456;8.844;2022-08-04T01:56:07;7.82;;;3.22;;
23304;SDS011;11821;51.456;8.844;2022-08-04T01:58:35;9.20;;;3.17;;
23304;SDS011;11821;51.456;8.844;2022-08-04T02:03:34;5.50;;;2.80;;
23304;SDS011;11821;51.456;8.844;2022-08-04T02:06:09;6.63;;;3.15;;
23304;SDS011;11821;51.456;8.844;2022-08-04T02:08:54;4.90;;;3.15;;
23304;SDS011;11821;51.456;8.844;2022-08-04T02:11:48;4.05;;;2.85;;
23304;SDS011;11821;51.456;8.844;2022-08-04T02:14:27;8.07;;;2.70;;
23304;SDS011;11821;51.456;8.844;2022-08-04T02:17:09;5.90;;;2.72;;
23304;SDS011;11821;51.456;8.844;2022-08-04T02:19:55;8.73;;;2.92;;
23304;SDS011;11821;51.456;8.844;2022-08-04T02:22:32;7.03;;;3.50;;
23304;SDS011;11821;51.456;8.844;2022-08-04T02:25:06;6.30;;;2.90;;
23304;SDS011;11821;51.456;8.844;2022-08-04T02:27:55;3.75;;;2.97;;
23304;SDS011;11821;51.456;8.844;2022-08-04T02:36:34;4.55;;;3.20;;
23304;SDS011;11821;51.456;8.844;2022-08-04T02:39:06;5.47;;;3.33;;
23304;SDS011;11821;51.456;8.844;2022-08-04T02:41:34;7.07;;;3.45;;
23304;SDS011;11821;51.456;8.844;2022-08-04T02:44:03;13.20;;;3.35;;
23304;SDS011;11821;51.456;8.844;2022-08-04T02:46:32;5.38;;;3.20;;
23304;SDS011;11821;51.456;8.844;2022-08-04T02:49:03;3.80;;;3.00;;
23304;SDS011;11821;51.456;8.844;2022-08-04T02:51:32;4.65;;;3.13;;
23304;SDS011;11821;51.456;8.844;2022-08-04T02:54:01;6.55;;;2.97;;
23304;SDS011;11821;51.456;8.844;2022-08-04T02:56:30;3.75;;;2.88;;
23304;SDS011;11821;51.456;8.844;2022-08-04T02:58:59;9.00;;;3.35;;
23304;SDS011;11821;51.456;8.844;2022-08-04T03:01:31;3.67;;;2.90;;
23304;SDS011;11821;51.456;8.844;2022-08-04T03:15:28;6.00;;;2.95;;
23304;SDS011;11821;51.456;8.844;2022-08-04T03:46:42;5.45;;;3.30;;
23304;SDS011;11821;51.456;8.844;2022-08-04T03:58:44;4.65;;;3.17;;
23304;SDS011;11821;51.456;8.844;2022-08-04T04:12:05;6.78;;;3.20;;
23304;SDS011;11821;51.456;8.844;2022-08-04T04:20:31;5.57;;;3.00;;
23304;SDS011;11821;51.456;8.844;2022-08-04T04:49:19;3.17;;;2.65;;
23304;SDS011;11821;51.456;8.844;2022-08-04T04:51:50;6.25;;;3.03;;
23304;SDS011;11821;51.456;8.844;2022-08-04T04:54:36;3.50;;;3.10;;
23304;SDS011;11821;51.456;8.844;2022-08-04T04:57:20;3.97;;;2.92;;
23304;SDS011;11821;51.456;8.844;2022-08-04T04:59:55;4.80;;;3.20;;
23304;SDS011;11821;51.456;8.844;2022-08-04T05:19:41;6.53;;;3.28;;
23304;SDS011;11821;51.456;8.844;2022-08-04T05:22:04;6.15;;;3.10;;
23304;SDS011;11821;51.456;8.844;2022-08-04T05:24:35;3.15;;;2.53;;
23304;SDS011;11821;51.456;8.844;2022-08-04T05:27:11;7.30;;;3.17;;
23304;SDS011;11821;51.456;8.844;2022-08-04T05:29:52;6.28;;;3.00;;
23304;SDS011;11821;51.456;8.844;2022-08-04T05:32:23;10.23;;;3.00;;
23304;SDS011;11821;51.456;8.844;2022-08-04T05:34:55;6.38;;;3.38;;
23304;SDS011;11821;51.456;8.844;2022-08-04T05:37:27;3.05;;;2.70;;
23304;SDS011;11821;51.456;8.844;2022-08-04T05:40:02;5.90;;;3.20;;
23304;SDS011;11821;51.456;8.844;2022-08-04T05:42:30;7.35;;;3.40;;
23304;SDS011;11821;51.456;8.844;2022-08-04T05:45:00;4.68;;;3.13;;
23304;SDS011;11821;51.456;8.844;2022-08-04T05:47:27;4.50;;;3.05;;
23304;SDS011;11821;51.456;8.844;2022-08-04T05:49:55;7.45;;;2.95;;
23304;SDS011;11821;51.456;8.844;2022-08-04T05:52:23;6.95;;;3.30;;
23304;SDS011;11821;51.456;8.844;2022-08-04T05:54:50;5.63;;;3.72;;
23304;SDS011;11821;51.456;8.844;2022-08-04T05:57:17;3.33;;;3.03;;
23304;SDS011;11821;51.456;8.844;2022-08-04T05:59:44;4.45;;;3.40;;
23304;SDS011;11821;51.456;8.844;2022-08-04T06:02:12;3.40;;;2.70;;
23304;SDS011;11821;51.456;8.844;2022-08-04T06:04:44;7.40;;;2.97;;
23304;SDS011;11821;51.456;8.844;2022-08-04T06:07:13;4.38;;;3.08;;
23304;SDS011;11821;51.456;8.844;2022-08-04T06:09:40;5.30;;;3.00;;
23304;SDS011;11821;51.456;8.844;2022-08-04T06:12:08;5.07;;;2.88;;
23304;SDS011;11821;51.456;8.844;2022-08-04T06:14:58;6.28;;;3.17;;
23304;SDS011;11821;51.456;8.844;2022-08-04T06:17:32;4.15;;;3.33;;
23304;SDS011;11821;51.456;8.844;2022-08-04T06:20:03;4.53;;;3.10;;
23304;SDS011;11821;51.456;8.844;2022-08-04T06:22:32;6.30;;;2.80;;
23304;SDS011;11821;51.456;8.844;2022-08-04T06:25:00;5.22;;;3.00;;
23304;SDS011;11821;51.456;8.844;2022-08-04T06:27:29;10.02;;;3.33;;
23304;SDS011;11821;51.456;8.844;2022-08-04T06:29:57;8.98;;;3.53;;
23304;SDS011;11821;51.456;8.844;2022-08-04T06:32:25;4.95;;;3.00;;
23304;SDS011;11821;51.456;8.844;2022-08-04T06:35:04;6.05;;;3.30;;
23304;SDS011;11821;51.456;8.844;2022-08-04T06:37:32;7.90;;;3.15;;
23304;SDS011;11821;51.456;8.844;2022-08-04T06:40:01;6.50;;;3.10;;
23304;SDS011;11821;51.456;8.844;2022-08-04T06:42:29;6.35;;;2.83;;
23304;SDS011;11821;51.456;8.844;2022-08-04T06:44:57;7.65;;;3.17;;
23304;SDS011;11821;51.456;8.844;2022-08-04T06:47:24;7.32;;;3.40;;
23304;SDS011;11821;51.456;8.844;2022-08-04T06:49:52;7.10;;;3.50;;
23304;SDS011;11821;51.456;8.844;2022-08-04T06:52:20;10.40;;;3.40;;
23304;SDS011;11821;51.456;8.844;2022-08-04T06:54:47;4.63;;;2.95;;
23304;SDS011;11821;51.456;8.844;2022-08-04T06:57:22;6.57;;;2.90;;
23304;SDS011;11821;51.456;8.844;2022-08-04T07:02:30;8.55;;;3.22;;
23304;SDS011;11821;51.456;8.844;2022-08-04T07:05:04;8.05;;;3.20;;
23304;SDS011;11821;51.456;8.844;2022-08-04T07:07:31;6.75;;;2.80;;
23304;SDS011;11821;51.456;8.844;2022-08-04T07:10:00;5.22;;;3.00;;
23304;SDS011;11821;51.456;8.844;2022-08-04T07:12:27;6.47;;;2.60;;
23304;SDS011;11821;51.456;8.844;2022-08-04T07:14:54;4.65;;;3.20;;
23304;SDS011;11821;51.456;8.844;2022-08-04T07:17:21;5.03;;;2.30;;
23304;SDS011;11821;51.456;8.844;2022-08-04T07:19:48;4.03;;;2.50;;
23304;SDS011;11821;51.456;8.844;2022-08-04T07:22:15;2.95;;;2.63;;
23304;SDS011;11821;51.456;8.844;2022-08-04T07:24:42;11.05;;;2.67;;
23304;SDS011;11821;51.456;8.844;2022-08-04T07:27:08;6.03;;;2.70;;
23304;SDS011;11821;51.456;8.844;2022-08-04T07:29:35;4.82;;;2.63;;
23304;SDS011;11821;51.456;8.844;2022-08-04T07:32:02;4.28;;;2.22;;
23304;SDS011;11821;51.456;8.844;2022-08-04T07:34:29;3.22;;;2.35;;
23304;SDS011;11821;51.456;8.844;2022-08-04T07:36:58;4.88;;;2.22;;
23304;SDS011;11821;51.456;8.844;2022-08-04T07:39:26;3.25;;;2.42;;
23304;SDS011;11821;51.456;8.844;2022-08-04T07:41:56;2.90;;;2.50;;
23304;SDS011;11821;51.456;8.844;2022-08-04T07:44:24;4.60;;;2.60;;
23304;SDS011;11821;51.456;8.844;2022-08-04T07:46:50;6.13;;;2.22;;
23304;SDS011;11821;51.456;8.844;2022-08-04T07:49:17;6.22;;;2.80;;
23304;SDS011;11821;51.456;8.844;2022-08-04T07:51:44;4.88;;;2.58;;
23304;SDS011;11821;51.456;8.844;2022-08-04T07:54:11;2.55;;;2.30;;
23304;SDS011;11821;51.456;8.844;2022-08-04T07:56:39;9.43;;;2.55;;
23304;SDS011;11821;51.456;8.844;2022-08-04T07:59:07;4.85;;;2.30;;
23304;SDS011;11821;51.456;8.844;2022-08-04T08:01:34;4.70;;;2.45;;
23304;SDS011;11821;51.456;8.844;2022-08-04T08:04:01;14.35;;;3.08;;
23304;SDS011;11821;51.456;8.844;2022-08-04T08:06:31;8.88;;;2.70;;
23304;SDS011;11821;51.456;8.844;2022-08-04T08:09:08;4.00;;;2.45;;
23304;SDS011;11821;51.456;8.844;2022-08-04T08:11:47;13.52;;;2.70;;
23304;SDS011;11821;51.456;8.844;2022-08-04T08:14:15;6.57;;;2.55;;
23304;SDS011;11821;51.456;8.844;2022-08-04T08:16:42;5.07;;;2.85;;
23304;SDS011;11821;51.456;8.844;2022-08-04T08:19:08;7.35;;;2.10;;
23304;SDS011;11821;51.456;8.844;2022-08-04T08:21:35;3.85;;;2.70;;
23304;SDS011;11821;51.456;8.844;2022-08-04T08:24:03;5.75;;;2.97;;
23304;SDS011;11821;51.456;8.844;2022-08-04T08:26:30;5.57;;;2.38;;
23304;SDS011;11821;51.456;8.844;2022-08-04T08:28:56;3.72;;;2.70;;
23304;SDS011;11821;51.456;8.844;2022-08-04T08:31:23;2.95;;;2.50;;
23304;SDS011;11821;51.456;8.844;2022-08-04T08:33:50;4.22;;;2.53;;
23304;SDS011;11821;51.456;8.844;2022-08-04T08:44:39;6.90;;;2.72;;
23304;SDS011;11821;51.456;8.844;2022-08-04T08:59:00;4.07;;;2.20;;
23304;SDS011;11821;51.456;8.844;2022-08-04T09:10:46;4.28;;;2.10;;
23304;SDS011;11821;51.456;8.844;2022-08-04T09:13:44;3.07;;;2.50;;
23304;SDS011;11821;51.456;8.844;2022-08-04T09:16:18;4.35;;;2.25;;
23304;SDS011;11821;51.456;8.844;2022-08-04T09:21:37;2.40;;;2.08;;
23304;SDS011;11821;51.456;8.844;2022-08-04T09:24:10;3.40;;;2.35;;
23304;SDS011;11821;51.456;8.844;2022-08-04T09:26:56;4.35;;;2.08;;
23304;SDS011;11821;51.456;8.844;2022-08-04T09:29:36;2.65;;;2.10;;
23304;SDS011;11821;51.456;8.844;2022-08-04T09:41:07;5.00;;;1.88;;
23304;SDS011;11821;51.456;8.844;2022-08-04T09:43:34;2.90;;;2.00;;
23304;SDS011;11821;51.456;8.844;2022-08-04T09:46:17;3.50;;;2.08;;
23304;SDS011;11821;51.456;8.844;2022-08-04T09:48:57;1.88;;;1.77;;
23304;SDS011;11821;51.456;8.844;2022-08-04T09:54:18;3.53;;;1.63;;
23304;SDS011;11821;51.456;8.844;2022-08-04T09:57:43;2.25;;;2.05;;
23304;SDS011;11821;51.456;8.844;2022-08-04T10:00:14;4.47;;;2.03;;
23304;SDS011;11821;51.456;8.844;2022-08-04T10:02:54;3.20;;;1.80;;
23304;SDS011;11821;51.456;8.844;2022-08-04T10:05:32;1.67;;;1.57;;
23304;SDS011;11821;51.456;8.844;2022-08-04T10:11:13;2.65;;;1.80;;
23304;SDS011;11821;51.456;8.844;2022-08-04T10:13:57;3.63;;;1.83;;
23304;SDS011;11821;51.456;8.844;2022-08-04T10:19:33;1.73;;;1.58;;
23304;SDS011;11821;51.456;8.844;2022-08-04T10:29:50;2.65;;;1.50;;
23304;SDS011;11821;51.456;8.844;2022-08-04T10:32:24;1.60;;;1.50;;
23304;SDS011;11821;51.456;8.844;2022-08-04T10:35:04;1.63;;;1.38;;
23304;SDS011;11821;51.456;8.844;2022-08-04T10:37:43;1.58;;;1.45;;
23304;SDS011;11821;51.456;8.844;2022-08-04T10:40:25;1.88;;;1.73;;
23304;SDS011;11821;51.456;8.844;2022-08-04T10:46:01;2.25;;;1.20;;
23304;SDS011;11821;51.456;8.844;2022-08-04T10:48:53;6.68;;;1.45;;
23304;SDS011;11821;51.456;8.844;2022-08-04T10:51:41;2.40;;;1.40;;
23304;SDS011;11821;51.456;8.844;2022-08-04T10:54:30;1.70;;;1.40;;
23304;SDS011;11821;51.456;8.844;2022-08-04T10:57:18;2.17;;;1.00;;
23304;SDS011;11821;51.456;8.844;2022-08-04T11:07:44;1.30;;;1.20;;
23304;SDS011;11821;51.456;8.844;2022-08-04T11:10:12;1.40;;;1.30;;
23304;SDS011;11821;51.456;8.844;2022-08-04T11:12:42;2.60;;;1.50;;
23304;SDS011;11821;51.456;8.844;2022-08-04T11:15:17;1.55;;;1.45;;
23304;SDS011;11821;51.456;8.844;2022-08-04T11:17:48;5.45;;;1.40;;
23304;SDS011;11821;51.456;8.844;2022-08-04T11:23:01;3.95;;;1.40;;
23304;SDS011;11821;51.456;8.844;2022-08-04T11:25:33;1.35;;;1.25;;
23304;SDS011;11821;51.456;8.844;2022-08-04T11:28:21;3.20;;;1.50;;
23304;SDS011;11821;51.456;8.844;2022-08-04T11:31:07;1.42;;;1.30;;
23304;SDS011;11821;51.456;8.844;2022-08-04T11:38:46;2.50;;;2.00;;
23304;SDS011;11821;51.456;8.844;2022-08-04T11:41:22;2.60;;;1.60;;
23304;SDS011;11821;51.456;8.844;2022-08-04T11:44:01;1.63;;;1.50;;
23304;SDS011;11821;51.456;8.844;2022-08-04T11:46:35;1.95;;;1.73;;
23304;SDS011;11821;51.456;8.844;2022-08-04T11:51:45;2.63;;;1.55;;
23304;SDS011;11821;51.456;8.844;2022-08-04T11:54:15;1.45;;;1.35;;
23304;SDS011;11821;51.456;8.844;2022-08-04T11:56:43;2.13;;;1.60;;
23304;SDS011;11821;51.456;8.844;2022-08-04T11:59:09;1.45;;;1.35;;
23304;SDS011;11821;51.456;8.844;2022-08-04T12:09:27;8.27;;;1.70;;
23304;SDS011;11821;51.456;8.844;2022-08-04T12:12:31;3.38;;;1.70;;
23304;SDS011;11821;51.456;8.844;2022-08-04T12:20:19;4.18;;;1.55;;
23304;SDS011;11821;51.456;8.844;2022-08-04T12:22:49;3.05;;;1.60;;
23304;SDS011;11821;51.456;8.844;2022-08-04T12:25:19;5.13;;;1.70;;
23304;SDS011;11821;51.456;8.844;2022-08-04T12:27:54;1.75;;;1.65;;
23304;SDS011;11821;51.456;8.844;2022-08-04T12:33:03;2.10;;;1.30;;
23304;SDS011;11821;51.456;8.844;2022-08-04T12:38:26;1.40;;;1.30;;
23304;SDS011;11821;51.456;8.844;2022-08-04T12:40:57;1.15;;;0.93;;
23304;SDS011;11821;51.456;8.844;2022-08-04T12:46:08;2.05;;;1.00;;
23304;SDS011;11821;51.456;8.844;2022-08-04T12:48:44;1.80;;;1.55;;
23304;SDS011;11821;51.456;8.844;2022-08-04T12:51:11;1.20;;;1.10;;
23304;SDS011;11821;51.456;8.844;2022-08-04T12:53:39;2.65;;;1.20;;
23304;SDS011;11821;51.456;8.844;2022-08-04T12:56:08;1.42;;;1.33;;
23304;SDS011;11821;51.456;8.844;2022-08-04T12:58:37;1.30;;;1.20;;
23304;SDS011;11821;51.456;8.844;2022-08-04T13:01:07;1.23;;;1.17;;
23304;SDS011;11821;51.456;8.844;2022-08-04T13:03:42;1.85;;;1.38;;
23304;SDS011;11821;51.456;8.844;2022-08-04T13:06:13;1.45;;;1.25;;
23304;SDS011;11821;51.456;8.844;2022-08-04T13:08:41;1.77;;;1.08;;
23304;SDS011;11821;51.456;8.844;2022-08-04T13:11:10;3.13;;;1.25;;
23304;SDS011;11821;51.456;8.844;2022-08-04T13:13:37;1.40;;;1.30;;
23304;SDS011;11821;51.456;8.844;2022-08-04T13:16:05;3.15;;;1.30;;
23304;SDS011;11821;51.456;8.844;2022-08-04T13:18:34;1.35;;;1.25;;
23304;SDS011;11821;51.456;8.844;2022-08-04T13:21:17;1.20;;;1.10;;
23304;SDS011;11821;51.456;8.844;2022-08-04T13:23:46;1.30;;;1.20;;
23304;SDS011;11821;51.456;8.844;2022-08-04T13:28:46;1.67;;;1.27;;
23304;SDS011;11821;51.456;8.844;2022-08-04T13:31:15;1.83;;;1.15;;
23304;SDS011;11821;51.456;8.844;2022-08-04T13:33:49;1.60;;;1.27;;
23304;SDS011;11821;51.456;8.844;2022-08-04T13:36:18;1.50;;;1.40;;
23304;SDS011;11821;51.456;8.844;2022-08-04T13:38:50;2.30;;;1.20;;
23304;SDS011;11821;51.456;8.844;2022-08-04T13:41:19;9.27;;;1.20;;
23304;SDS011;11821;51.456;8.844;2022-08-04T13:43:48;2.15;;;1.27;;
23304;SDS011;11821;51.456;8.844;2022-08-04T13:46:19;1.60;;;1.25;;
23304;SDS011;11821;51.456;8.844;2022-08-04T13:48:54;2.58;;;1.33;;
23304;SDS011;11821;51.456;8.844;2022-08-04T13:51:22;1.23;;;1.17;;
23304;SDS011;11821;51.456;8.844;2022-08-04T13:53:57;3.60;;;1.45;;
23304;SDS011;11821;51.456;8.844;2022-08-04T13:56:29;1.35;;;1.25;;
23304;SDS011;11821;51.456;8.844;2022-08-04T13:59:00;4.38;;;1.25;;
23304;SDS011;11821;51.456;8.844;2022-08-04T14:01:29;2.55;;;1.10;;
23304;SDS011;11821;51.456;8.844;2022-08-04T14:06:30;2.83;;;1.20;;
23304;SDS011;11821;51.456;8.844;2022-08-04T14:11:38;1.95;;;1.10;;
23304;SDS011;11821;51.456;8.844;2022-08-04T14:14:22;0.93;;;0.93;;
23304;SDS011;11821;51.456;8.844;2022-08-04T14:19:51;2.33;;;1.02;;
23304;SDS011;11821;51.456;8.844;2022-08-04T14:30:32;2.53;;;1.50;;
23304;SDS011;11821;51.456;8.844;2022-08-04T14:35:31;1.17;;;0.95;;
23304;SDS011;11821;51.456;8.844;2022-08-04T14:37:59;1.80;;;1.10;;
23304;SDS011;11821;51.456;8.844;2022-08-04T14:42:57;3.53;;;1.20;;
23304;SDS011;11821;51.456;8.844;2022-08-04T14:45:28;1.48;;;1.13;;
23304;SDS011;11821;51.456;8.844;2022-08-04T14:48:06;3.00;;;0.90;;
23304;SDS011;11821;51.456;8.844;2022-08-04T14:50:39;4.97;;;1.42;;
23304;SDS011;11821;51.456;8.844;2022-08-04T14:53:17;1.25;;;1.05;;
23304;SDS011;11821;51.456;8.844;2022-08-04T14:55:48;2.15;;;1.40;;
23304;SDS011;11821;51.456;8.844;2022-08-04T14:58:23;5.20;;;1.10;;
23304;SDS011;11821;51.456;8.844;2022-08-04T15:00:56;2.75;;;1.23;;
23304;SDS011;11821;51.456;8.844;2022-08-04T15:03:24;3.53;;;1.40;;
23304;SDS011;11821;51.456;8.844;2022-08-04T15:05:52;1.85;;;1.10;;
23304;SDS011;11821;51.456;8.844;2022-08-04T15:08:20;3.78;;;1.50;;
23304;SDS011;11821;51.456;8.844;2022-08-04T15:10:47;1.77;;;1.30;;
23304;SDS011;11821;51.456;8.844;2022-08-04T15:13:13;1.52;;;1.10;;
23304;SDS011;11821;51.456;8.844;2022-08-04T15:15:40;1.45;;;0.93;;
23304;SDS011;11821;51.456;8.844;2022-08-04T15:18:09;4.72;;;1.23;;
23304;SDS011;11821;51.456;8.844;2022-08-04T15:20:36;3.83;;;1.38;;
23304;SDS011;11821;51.456;8.844;2022-08-04T15:23:04;7.82;;;1.48;;
23304;SDS011;11821;51.456;8.844;2022-08-04T15:25:36;3.33;;;1.35;;
23304;SDS011;11821;51.456;8.844;2022-08-04T15:28:09;1.80;;;1.38;;
23304;SDS011;11821;51.456;8.844;2022-08-04T15:30:38;2.22;;;1.25;;
23304;SDS011;11821;51.456;8.844;2022-08-04T15:33:05;2.20;;;1.52;;
23304;SDS011;11821;51.456;8.844;2022-08-04T15:35:32;3.92;;;1.60;;
23304;SDS011;11821;51.456;8.844;2022-08-04T15:38:04;6.15;;;1.50;;
23304;SDS011;11821;51.456;8.844;2022-08-04T15:40:47;3.70;;;1.75;;
23304;SDS011;11821;51.456;8.844;2022-08-04T15:46:10;2.92;;;2.10;;
23304;SDS011;11821;51.456;8.844;2022-08-04T15:48:37;4.68;;;1.95;;
23304;SDS011;11821;51.456;8.844;2022-08-04T15:51:05;3.15;;;1.90;;
23304;SDS011;11821;51.456;8.844;2022-08-04T15:59:01;7.18;;;2.00;;
23304;SDS011;11821;51.456;8.844;2022-08-04T16:01:28;5.55;;;2.28;;
23304;SDS011;11821;51.456;8.844;2022-08-04T16:03:54;3.88;;;2.03;;
23304;SDS011;11821;51.456;8.844;2022-08-04T16:14:09;5.63;;;2.28;;
23304;SDS011;11821;51.456;8.844;2022-08-04T16:21:55;6.65;;;2.15;;
23304;SDS011;11821;51.456;8.844;2022-08-04T16:24:35;6.10;;;2.40;;
23304;SDS011;11821;51.456;8.844;2022-08-04T16:32:10;11.88;;;1.92;;
23304;SDS011;11821;51.456;8.844;2022-08-04T16:37:36;6.82;;;2.35;;
23304;SDS011;11821;51.456;8.844;2022-08-04T16:42:57;4.53;;;1.98;;
23304;SDS011;11821;51.456;8.844;2022-08-04T16:45:38;6.80;;;2.22;;
23304;SDS011;11821;51.456;8.844;2022-08-04T16:48:24;10.93;;;2.25;;
23304;SDS011;11821;51.456;8.844;2022-08-04T16:50:52;9.35;;;2.53;;
23304;SDS011;11821;51.456;8.844;2022-08-04T16:53:21;5.70;;;2.17;;
23304;SDS011;11821;51.456;8.844;2022-08-04T16:55:51;8.55;;;2.55;;
23304;SDS011;11821;51.456;8.844;2022-08-04T16:58:29;6.53;;;2.20;;
23304;SDS011;11821;51.456;8.844;2022-08-04T17:00:57;3.20;;;2.25;;
23304;SDS011;11821;51.456;8.844;2022-08-04T17:03:30;5.95;;;2.25;;
23304;SDS011;11821;51.456;8.844;2022-08-04T17:06:09;5.30;;;1.80;;
23304;SDS011;11821;51.456;8.844;2022-08-04T17:08:45;4.43;;;2.60;;
23304;SDS011;11821;51.456;8.844;2022-08-04T17:11:14;5.90;;;2.40;;
23304;SDS011;11821;51.456;8.844;2022-08-04T17:13:43;12.77;;;2.42;;
23304;SDS011;11821;51.456;8.844;2022-08-04T17:16:11;7.82;;;2.58;;
23304;SDS011;11821;51.456;8.844;2022-08-04T17:18:45;7.72;;;2.50;;
23304;SDS011;11821;51.456;8.844;2022-08-04T17:21:18;12.63;;;2.60;;
23304;SDS011;11821;51.456;8.844;2022-08-04T17:23:50;6.30;;;2.22;;
23304;SDS011;11821;51.456;8.844;2022-08-04T17:26:18;6.97;;;2.50;;
23304;SDS011;11821;51.456;8.844;2022-08-04T17:28:50;4.57;;;2.33;;
23304;SDS011;11821;51.456;8.844;2022-08-04T17:31:19;16.75;;;2.67;;
23304;SDS011;11821;51.456;8.844;2022-08-04T17:33:49;3.28;;;2.30;;
23304;SDS011;11821;51.456;8.844;2022-08-04T17:36:21;8.90;;;2.22;;
23304;SDS011;11821;51.456;8.844;2022-08-04T17:38:52;7.60;;;2.42;;
23304;SDS011;11821;51.456;8.844;2022-08-04T17:41:24;7.97;;;2.30;;
23304;SDS011;11821;51.456;8.844;2022-08-04T17:43:54;5.07;;;2.47;;
23304;SDS011;11821;51.456;8.844;2022-08-04T17:49:10;5.75;;;2.42;;
23304;SDS011;11821;51.456;8.844;2022-08-04T17:51:55;5.43;;;2.15;;
23304;SDS011;11821;51.456;8.844;2022-08-04T17:56:52;7.38;;;2.10;;
23304;SDS011;11821;51.456;8.844;2022-08-04T18:02:06;5.40;;;2.03;;
23304;SDS011;11821;51.456;8.844;2022-08-04T18:07:04;8.15;;;2.40;;
23304;SDS011;11821;51.456;8.844;2022-08-04T18:09:39;8.90;;;2.40;;
23304;SDS011;11821;51.456;8.844;2022-08-04T18:14:48;7.88;;;2.30;;
23304;SDS011;11821;51.456;8.844;2022-08-04T18:20:23;6.35;;;2.00;;
23304;SDS011;11821;51.456;8.844;2022-08-04T18:22:50;4.70;;;2.25;;
23304;SDS011;11821;51.456;8.844;2022-08-04T18:25:18;5.78;;;2.70;;
23304;SDS011;11821;51.456;8.844;2022-08-04T18:27:50;9.23;;;2.38;;
23304;SDS011;11821;51.456;8.844;2022-08-04T18:30:19;10.65;;;2.40;;
23304;SDS011;11821;51.456;8.844;2022-08-04T18:32:49;7.28;;;2.30;;
23304;SDS011;11821;51.456;8.844;2022-08-04T18:35:18;9.32;;;2.28;;
23304;SDS011;11821;51.456;8.844;2022-08-04T18:37:45;4.60;;;2.35;;
23304;SDS011;11821;51.456;8.844;2022-08-04T18:40:11;5.35;;;2.17;;
23304;SDS011;11821;51.456;8.844;2022-08-04T18:42:38;6.38;;;2.30;;
23304;SDS011;11821;51.456;8.844;2022-08-04T18:45:04;5.03;;;2.40;;
23304;SDS011;11821;51.456;8.844;2022-08-04T18:47:31;4.70;;;2.30;;
23304;SDS011;11821;51.456;8.844;2022-08-04T18:49:57;4.45;;;2.17;;
23304;SDS011;11821;51.456;8.844;2022-08-04T18:52:24;5.57;;;2.50;;
23304;SDS011;11821;51.456;8.844;2022-08-04T18:54:50;6.55;;;2.17;;
23304;SDS011;11821;51.456;8.844;2022-08-04T18:57:18;7.47;;;2.20;;
23304;SDS011;11821;51.456;8.844;2022-08-04T18:59:48;7.80;;;2.65;;
23304;SDS011;11821;51.456;8.844;2022-08-04T19:02:15;4.60;;;2.13;;
23304;SDS011;11821;51.456;8.844;2022-08-04T19:04:42;4.88;;;2.03;;
23304;SDS011;11821;51.456;8.844;2022-08-04T19:07:09;4.50;;;2.28;;
23304;SDS011;11821;51.456;8.844;2022-08-04T19:09:39;7.97;;;2.47;;
23304;SDS011;11821;51.456;8.844;2022-08-04T19:12:06;10.80;;;3.17;;
23304;SDS011;11821;51.456;8.844;2022-08-04T19:14:33;7.75;;;2.42;;
23304;SDS011;11821;51.456;8.844;2022-08-04T19:16:59;4.53;;;2.60;;
23304;SDS011;11821;51.456;8.844;2022-08-04T19:19:26;9.02;;;3.03;;
23304;SDS011;11821;51.456;8.844;2022-08-04T19:21:52;6.47;;;2.40;;
23304;SDS011;11821;51.456;8.844;2022-08-04T19:24:18;5.95;;;2.33;;
23304;SDS011;11821;51.456;8.844;2022-08-04T19:26:45;7.85;;;2.50;;
23304;SDS011;11821;51.456;8.844;2022-08-04T19:29:12;7.10;;;3.00;;
23304;SDS011;11821;51.456;8.844;2022-08-04T19:31:39;5.15;;;2.58;;
23304;SDS011;11821;51.456;8.844;2022-08-04T19:34:06;13.77;;;2.92;;
23304;SDS011;11821;51.456;8.844;2022-08-04T19:36:32;7.38;;;3.00;;
23304;SDS011;11821;51.456;8.844;2022-08-04T19:39:00;6.10;;;2.65;;
23304;SDS011;11821;51.456;8.844;2022-08-04T19:41:29;7.65;;;2.58;;
23304;SDS011;11821;51.456;8.844;2022-08-04T19:44:04;8.40;;;2.50;;
23304;SDS011;11821;51.456;8.844;2022-08-04T19:46:31;6.25;;;3.30;;
23304;SDS011;11821;51.456;8.844;2022-08-04T19:48:58;4.32;;;3.08;;
23304;SDS011;11821;51.456;8.844;2022-08-04T19:51:24;5.57;;;2.58;;
23304;SDS011;11821;51.456;8.844;2022-08-04T19:53:51;7.53;;;3.15;;
23304;SDS011;11821;51.456;8.844;2022-08-04T19:56:17;9.43;;;2.75;;
23304;SDS011;11821;51.456;8.844;2022-08-04T19:58:44;7.30;;;3.42;;
23304;SDS011;11821;51.456;8.844;2022-08-04T20:01:11;5.95;;;3.42;;
23304;SDS011;11821;51.456;8.844;2022-08-04T20:03:38;7.28;;;3.17;;
23304;SDS011;11821;51.456;8.844;2022-08-04T20:06:04;7.47;;;3.13;;
23304;SDS011;11821;51.456;8.844;2022-08-04T20:08:30;4.30;;;3.05;;
23304;SDS011;11821;51.456;8.844;2022-08-04T20:10:57;5.88;;;3.03;;
23304;SDS011;11821;51.456;8.844;2022-08-04T20:13:24;4.32;;;3.40;;
23304;SDS011;11821;51.456;8.844;2022-08-04T20:15:51;7.72;;;3.05;;
23304;SDS011;11821;51.456;8.844;2022-08-04T20:18:18;5.28;;;3.55;;
23304;SDS011;11821;51.456;8.844;2022-08-04T20:20:44;7.45;;;3.47;;
23304;SDS011;11821;51.456;8.844;2022-08-04T20:23:11;3.53;;;2.83;;
23304;SDS011;11821;51.456;8.844;2022-08-04T20:25:37;14.10;;;4.05;;
23304;SDS011;11821;51.456;8.844;2022-08-04T20:28:04;6.72;;;3.08;;
23304;SDS011;11821;51.456;8.844;2022-08-04T20:30:30;6.22;;;3.28;;
23304;SDS011;11821;51.456;8.844;2022-08-04T20:32:58;4.63;;;3.47;;
23304;SDS011;11821;51.456;8.844;2022-08-04T20:35:26;5.57;;;2.67;;
23304;SDS011;11821;51.456;8.844;2022-08-04T20:37:55;12.15;;;3.65;;
23304;SDS011;11821;51.456;8.844;2022-08-04T20:40:21;7.57;;;3.05;;
23304;SDS011;11821;51.456;8.844;2022-08-04T20:42:47;6.72;;;3.03;;